createdAt,value
2018-11-22T09:00:15.520Z,32.169
2018-11-22T09:00:31.820Z,27.406
2018-11-22T09:00:48.111Z,26.372
2018-11-22T09:01:04.413Z,27.032
2018-11-22T09:01:20.734Z,26.564
2018-11-22T09:01:37.039Z,26.245
2018-11-22T09:01:53.324Z,27.119
2018-11-22T09:02:09.647Z,26.317
2018-11-22T09:02:25.980Z,26.28
2018-11-22T09:02:46.712Z,26.335
2018-11-22T09:03:03.491Z,26.422
2018-11-22T09:03:20.137Z,26.3
2018-11-22T09:03:36.817Z,26.286
2018-11-22T09:03:53.473Z,26.248
2018-11-22T09:04:10.140Z,26.28
2018-11-22T09:04:42.887Z,26.202
2018-11-22T09:04:59.607Z,26.199
2018-11-22T09:05:16.267Z,26.257
2018-11-22T09:05:32.969Z,26.286
2018-11-22T09:05:49.602Z,26.282
2018-11-22T09:06:06.274Z,26.353
2018-11-22T09:06:22.997Z,26.41
2018-11-22T09:06:39.661Z,26.689
2018-11-22T09:06:56.334Z,26.694
2018-11-22T09:07:13.067Z,26.923
2018-11-22T09:07:29.752Z,26.99
2018-11-22T09:07:46.499Z,26.884
2018-11-22T09:08:03.343Z,26.959
2018-11-22T09:08:20.001Z,27.342
2018-11-22T09:08:36.706Z,27.38
2018-11-22T09:08:53.349Z,27.283
2018-11-22T09:09:09.979Z,27.019
2018-11-22T09:09:26.654Z,27.022
2018-11-22T09:09:43.334Z,27.019
2018-11-22T09:10:03.949Z,27.165
2018-11-22T09:10:20.585Z,27.058
2018-11-22T09:10:37.295Z,27.122
2018-11-22T09:10:53.939Z,27.095
2018-11-22T09:11:10.589Z,27.036
2018-11-22T09:11:27.278Z,27.036
2018-11-22T09:11:43.937Z,27.06
2018-11-22T09:12:00.568Z,27.019
2018-11-22T09:12:17.207Z,26.991
2018-11-22T09:12:33.866Z,26.891
2018-11-22T09:12:50.557Z,26.978
2018-11-22T09:13:07.228Z,26.971
2018-11-22T09:13:23.896Z,27.095
2018-11-22T09:13:40.610Z,26.962
2018-11-22T09:13:57.252Z,26.967
2018-11-22T09:14:13.883Z,26.83
2018-11-22T09:14:30.559Z,26.949
2018-11-22T09:14:47.240Z,27.022
2018-11-22T09:15:03.987Z,27.037
2018-11-22T09:15:20.697Z,27.023
2018-11-22T09:15:37.346Z,27.177
2018-11-22T09:15:53.999Z,26.958
2018-11-22T09:16:10.695Z,26.868
2018-11-22T09:16:27.358Z,26.968
2018-11-22T09:16:44.011Z,26.926
2018-11-22T09:17:00.772Z,26.706
2018-11-22T09:17:17.533Z,26.831
2018-11-22T09:17:34.204Z,26.886
2018-11-22T09:17:50.886Z,26.831
2018-11-22T09:18:07.529Z,26.978
2018-11-22T09:18:24.242Z,26.891
2018-11-22T09:18:40.916Z,26.891
2018-11-22T09:18:57.553Z,26.775
2018-11-22T09:19:14.184Z,26.976
2018-11-22T09:19:30.917Z,26.99
2018-11-22T09:19:47.519Z,26.955
2018-11-22T09:20:04.238Z,26.836
2018-11-22T09:20:20.922Z,26.765
2018-11-22T09:20:37.602Z,26.724
2018-11-22T09:20:54.256Z,26.639
2018-11-22T09:21:10.899Z,26.593
2018-11-22T09:21:27.590Z,26.674
2018-11-22T09:21:44.241Z,26.532
2018-11-22T09:22:00.954Z,26.575
2018-11-22T09:22:17.552Z,26.666
2018-11-22T09:22:34.292Z,26.68
2018-11-22T09:22:50.966Z,26.653
2018-11-22T09:23:07.585Z,26.688
2018-11-22T09:23:24.246Z,26.573
2018-11-22T09:23:40.946Z,26.665
2018-11-22T09:23:57.633Z,26.505
2018-11-22T09:24:14.274Z,26.566
2018-11-22T09:24:30.958Z,26.573
2018-11-22T09:24:47.601Z,26.848
2018-11-22T09:25:04.245Z,26.918
2018-11-22T09:25:20.893Z,26.921
2018-11-22T09:25:37.568Z,27.008
2018-11-22T09:25:54.342Z,27.054
2018-11-22T09:26:11.082Z,27.081
2018-11-22T09:26:27.728Z,27.11
2018-11-22T09:26:44.433Z,27.092
2018-11-22T09:27:01.100Z,27.113
2018-11-22T09:27:17.753Z,27.046
2018-11-22T09:27:34.455Z,27.069
2018-11-22T09:27:51.083Z,26.978
2018-11-22T09:28:07.785Z,27.06
2018-11-22T09:28:24.422Z,26.968
2018-11-22T09:28:41.130Z,27.008
2018-11-22T09:28:57.837Z,27.095
2018-11-22T09:29:14.490Z,27.11
2018-11-22T09:29:31.119Z,27.068
2018-11-22T09:29:47.842Z,27.087
2018-11-22T09:30:04.510Z,27.66
2018-11-22T09:30:21.196Z,27.287
2018-11-22T09:30:37.859Z,27.11
2018-11-22T09:30:54.536Z,27.081
2018-11-22T09:31:11.224Z,26.994
2018-11-22T09:31:27.887Z,27.243
2018-11-22T09:31:44.555Z,27.196
2018-11-22T09:32:01.276Z,27.408
2018-11-22T09:32:17.922Z,27.402
2018-11-22T09:32:34.596Z,27.301
2018-11-22T09:32:51.232Z,27.26
2018-11-22T09:33:07.952Z,27.216
2018-11-22T09:33:24.617Z,27.113
2018-11-22T09:33:41.272Z,27.261
2018-11-22T09:33:57.951Z,27.805
2018-11-22T09:34:14.776Z,27.444
2018-11-22T09:34:31.392Z,27.248
2018-11-22T09:34:48.087Z,27.637
2018-11-22T09:35:05.122Z,27.637
2018-11-22T09:35:23.217Z,26.14
2018-11-22T09:35:40.188Z,25.621
2018-11-22T09:35:56.445Z,25.883
2018-11-22T09:36:12.794Z,26.538
2018-11-22T09:36:29.301Z,26.367
2018-11-22T09:36:46.003Z,27.216
2018-11-22T09:37:02.668Z,27.502
2018-11-22T09:37:19.340Z,26.566
2018-11-22T09:37:35.994Z,26.314
2018-11-22T09:37:52.735Z,26.698
2018-11-22T09:38:09.438Z,26.674
2018-11-22T09:38:26.086Z,28.067
2018-11-22T09:38:42.742Z,26.328
2018-11-22T09:38:59.390Z,26.328
2018-11-22T09:39:16.085Z,25.719
2018-11-22T09:39:32.736Z,26.076
2018-11-22T09:39:49.406Z,26.047
2018-11-22T09:40:06.087Z,26.083
2018-11-22T09:40:22.751Z,25.824
2018-11-22T09:40:39.407Z,27.086
2018-11-22T09:40:56.095Z,27.138
2018-11-22T09:41:12.800Z,27.257
2018-11-22T09:41:29.439Z,26.891
2018-11-22T09:41:46.133Z,26.918
2018-11-22T09:42:03.222Z,26.895
2018-11-22T09:42:21.295Z,26.898
2018-11-22T09:42:38.292Z,26.813
2018-11-22T09:42:54.549Z,26.697
2018-11-22T09:43:10.866Z,26.697
2018-11-22T09:43:27.432Z,26.602
2018-11-22T09:43:44.092Z,26.44
2018-11-22T09:44:00.808Z,26.326
2018-11-22T09:44:17.495Z,26.213
2018-11-22T09:44:34.138Z,26.231
2018-11-22T09:44:50.815Z,26.176
2018-11-22T09:45:07.473Z,26.199
2018-11-22T09:45:24.186Z,26.157
2018-11-22T09:45:40.757Z,26.175
2018-11-22T09:45:57.567Z,26.312
2018-11-22T09:46:14.175Z,26.372
2018-11-22T09:46:30.888Z,26.286
2018-11-22T09:46:47.527Z,26.945
2018-11-22T09:47:04.214Z,27.724
2018-11-22T09:47:20.887Z,30.734
2018-11-22T09:47:37.738Z,27.417
2018-11-22T09:47:54.429Z,30.116
2018-11-22T09:48:11.138Z,30.283
2018-11-22T09:48:28.247Z,29.834
2018-11-22T09:48:46.184Z,29.404
2018-11-22T09:49:03.050Z,29.407
2018-11-22T09:49:19.325Z,30.052
2018-11-22T09:49:35.760Z,27.101
2018-11-22T09:49:52.420Z,30.933
2018-11-22T09:50:09.146Z,27.133
2018-11-22T09:50:25.830Z,26.437
2018-11-22T09:50:42.665Z,29.285
2018-11-22T09:50:59.340Z,27.316
2018-11-22T09:51:16.018Z,29.468
2018-11-22T09:51:32.668Z,26.93
2018-11-22T09:51:49.301Z,26.683
2018-11-22T09:52:05.954Z,26.62
2018-11-22T09:52:22.578Z,27.962
2018-11-22T09:52:39.230Z,29.01
2018-11-22T09:52:55.863Z,28.642
2018-11-22T09:53:12.514Z,28.731
2018-11-22T09:53:29.289Z,27.715
2018-11-22T09:53:45.876Z,28.148
2018-11-22T09:54:02.595Z,27.914
2018-11-22T09:54:19.202Z,27.243
2018-11-22T09:54:35.906Z,26.767
2018-11-22T09:54:52.530Z,28.587
2018-11-22T09:55:09.172Z,27.306
2018-11-22T09:55:25.809Z,27.2
2018-11-22T09:55:42.444Z,26.978
2018-11-22T09:55:59.064Z,28.053
2018-11-22T09:56:15.781Z,27.013
2018-11-22T09:56:32.414Z,27.921
2018-11-22T09:56:49.087Z,27.637
2018-11-22T09:57:05.752Z,28.172
2018-11-22T09:57:22.377Z,27.402
2018-11-22T09:57:39.066Z,27.596
2018-11-22T09:57:55.820Z,28.104
2018-11-22T09:58:12.416Z,26.987
2018-11-22T09:58:29.100Z,27
2018-11-22T09:58:45.698Z,27.435
2018-11-22T09:59:03.122Z,27.298
2018-11-22T09:59:21.138Z,27.165
2018-11-22T09:59:37.958Z,27.042
2018-11-22T09:59:54.648Z,26.959
2018-11-22T10:00:11.303Z,26.916
2018-11-22T10:00:28.034Z,27.022
2018-11-22T10:00:44.723Z,27.065
2018-11-22T10:01:01.450Z,27.351
2018-11-22T10:01:18.124Z,27.724
2018-11-22T10:01:34.806Z,27.307
2018-11-22T10:01:51.486Z,27.174
2018-11-22T10:02:08.225Z,27.248
2018-11-22T10:02:25.089Z,27.237
2018-11-22T10:02:41.727Z,27.727
2018-11-22T10:02:59.385Z,27.37
2018-11-22T10:03:17.289Z,27.444
2018-11-22T10:03:33.837Z,27.325
2018-11-22T10:03:50.587Z,27.173
2018-11-22T10:04:07.180Z,27.489
2018-11-22T10:04:23.843Z,27.759
2018-11-22T10:04:41.499Z,27.965
2018-11-22T10:05:01.335Z,27.965
2018-11-22T10:05:20.039Z,27.969
2018-11-22T10:05:37.790Z,27.626
2018-11-22T10:05:54.857Z,27.568
2018-11-22T10:06:11.802Z,27.864
2018-11-22T10:06:28.089Z,27.791
2018-11-22T10:06:44.397Z,28.477
2018-11-22T10:07:00.926Z,27.683
2018-11-22T10:07:17.605Z,27.42
2018-11-22T10:07:34.344Z,27.461
2018-11-22T10:07:50.985Z,27.626
2018-11-22T10:08:07.659Z,27.477
2018-11-22T10:08:24.864Z,28.12
2018-11-22T10:08:42.836Z,27.85
2018-11-22T10:08:59.741Z,27.896
2018-11-22T10:09:16.877Z,28.566
2018-11-22T10:09:33.585Z,27.672
2018-11-22T10:09:49.894Z,27.536
2018-11-22T10:10:06.532Z,27.718
2018-11-22T10:10:23.206Z,27.658
2018-11-22T10:10:39.857Z,27.477
2018-11-22T10:10:56.508Z,27.493
2018-11-22T10:11:13.238Z,27.493
2018-11-22T10:11:29.924Z,27.475
2018-11-22T10:11:46.618Z,27.493
2018-11-22T10:12:03.304Z,27.554
2018-11-22T10:12:20.649Z,27.449
2018-11-22T10:12:39.085Z,27.417
2018-11-22T10:12:55.903Z,27.571
2018-11-22T10:13:12.174Z,27.242
2018-11-22T10:13:28.527Z,27.48
2018-11-22T10:13:45.046Z,27.434
2018-11-22T10:14:01.776Z,27.42
2018-11-22T10:14:18.518Z,27.567
2018-11-22T10:14:35.111Z,27.448
2018-11-22T10:14:51.818Z,27.39
2018-11-22T10:15:08.516Z,27.242
2018-11-22T10:15:25.182Z,27.319
2018-11-22T10:15:41.829Z,27.202
2018-11-22T10:15:58.501Z,27.422
2018-11-22T10:16:15.251Z,28.424
2018-11-22T10:16:31.845Z,29.219
2018-11-22T10:16:48.618Z,28.5
2018-11-22T10:17:06.761Z,30.113
2018-11-22T10:17:23.548Z,28.079
2018-11-22T10:17:39.816Z,28.249
2018-11-22T10:17:56.183Z,27.736
2018-11-22T10:18:12.815Z,27.887
2018-11-22T10:18:30.349Z,27.919
2018-11-22T10:18:47.756Z,28.04
2018-11-22T10:19:04.460Z,27.994
2018-11-22T10:19:21.248Z,27.531
2018-11-22T10:19:37.946Z,27.567
2018-11-22T10:19:54.703Z,27.507
2018-11-22T10:20:11.378Z,27.383
2018-11-22T10:20:28.052Z,27.411
2018-11-22T10:20:44.760Z,27.397
2018-11-22T10:21:01.469Z,27.325
2018-11-22T10:21:18.104Z,27.292
2018-11-22T10:21:34.849Z,27.324
2018-11-22T10:21:51.544Z,27.339
2018-11-22T10:22:08.245Z,27.248
2018-11-22T10:22:25.750Z,27.179
2018-11-22T10:22:42.883Z,27.264
2018-11-22T10:22:59.553Z,27.22
2018-11-22T10:23:16.195Z,27.325
2018-11-22T10:23:32.962Z,27.22
2018-11-22T10:23:51.347Z,27.287
2018-11-22T10:24:08.321Z,27.371
2018-11-22T10:24:26.516Z,27.312
2018-11-22T10:24:43.404Z,27.779
2018-11-22T10:24:59.693Z,27.151
2018-11-22T10:25:16.126Z,27.15
2018-11-22T10:25:32.833Z,27.361
2018-11-22T10:25:49.538Z,27.417
2018-11-22T10:26:06.418Z,27.403
2018-11-22T10:26:23.014Z,27.209
2018-11-22T10:26:39.677Z,26.968
2018-11-22T10:26:56.417Z,26.685
2018-11-22T10:27:13.283Z,26.491
2018-11-22T10:27:29.840Z,26.694
2018-11-22T10:27:46.563Z,26.367
2018-11-22T10:28:03.290Z,26.144
2018-11-22T10:28:19.976Z,26.144
2018-11-22T10:28:36.617Z,26.93
2018-11-22T10:28:53.312Z,26.199
2018-11-22T10:29:10.414Z,26.184
2018-11-22T10:29:28.656Z,25.897
2018-11-22T10:29:45.535Z,25.85
2018-11-22T10:30:02.045Z,25.822
2018-11-22T10:30:19.835Z,25.714
2018-11-22T10:30:36.555Z,25.832
2018-11-22T10:30:52.862Z,28.978
2018-11-22T10:31:09.407Z,27.713
2018-11-22T10:31:26.571Z,26.474
2018-11-22T10:31:44.205Z,27.768
2018-11-22T10:32:00.787Z,26.367
2018-11-22T10:32:17.097Z,26.007
2018-11-22T10:32:33.649Z,26.065
2018-11-22T10:32:50.314Z,26.083
2018-11-22T10:33:07.045Z,26.08
2018-11-22T10:33:23.755Z,26.021
2018-11-22T10:33:40.394Z,26.035
2018-11-22T10:33:57.084Z,26.053
2018-11-22T10:34:13.756Z,25.989
2018-11-22T10:34:30.504Z,26.051
2018-11-22T10:34:47.196Z,25.993
2018-11-22T10:35:04.469Z,26.051
2018-11-22T10:35:22.449Z,26.138
2018-11-22T10:35:39.196Z,26.038
2018-11-22T10:35:55.530Z,25.932
2018-11-22T10:36:12.069Z,26.006
2018-11-22T10:36:28.859Z,26.038
2018-11-22T10:36:45.555Z,26.337
2018-11-22T10:37:02.219Z,25.993
2018-11-22T10:37:18.909Z,25.891
2018-11-22T10:37:36.031Z,25.969
2018-11-22T10:37:54.716Z,26.147
2018-11-22T10:38:11.970Z,26.143
2018-11-22T10:38:29.341Z,26.367
2018-11-22T10:38:46.303Z,26.372
2018-11-22T10:39:02.938Z,26.062
2018-11-22T10:39:35.504Z,25.87
2018-11-22T10:39:52.362Z,26.138
2018-11-22T10:40:08.967Z,26.23
2018-11-22T10:40:25.666Z,26.007
2018-11-22T10:40:42.568Z,25.92
2018-11-22T10:40:59.274Z,25.948
2018-11-22T10:41:16.021Z,25.923
2018-11-22T10:41:32.677Z,26.039
2018-11-22T10:41:49.387Z,26.074
2018-11-22T10:42:06.124Z,26.007
2018-11-22T10:42:23.450Z,25.969
2018-11-22T10:42:40.756Z,26.372
2018-11-22T10:42:57.585Z,26.149
2018-11-22T10:43:13.963Z,26.57
2018-11-22T10:43:30.590Z,26.195
2018-11-22T10:43:47.263Z,26.12
2018-11-22T10:44:03.999Z,26.149
2018-11-22T10:44:20.586Z,26.149
2018-11-22T10:44:37.298Z,26.103
2018-11-22T10:44:53.937Z,26.212
2018-11-22T10:45:10.627Z,26.241
2018-11-22T10:45:27.306Z,27.376
2018-11-22T10:45:44.016Z,28.552
2018-11-22T10:46:00.698Z,26.825
2018-11-22T10:46:17.332Z,29.614
2018-11-22T10:46:33.983Z,28.629
2018-11-22T10:46:50.679Z,26.758
2018-11-22T10:47:07.386Z,26.625
2018-11-22T10:47:24.024Z,26.726
2018-11-22T10:47:40.746Z,26.588
2018-11-22T10:47:57.392Z,26.697
2018-11-22T10:48:14.044Z,26.729
2018-11-22T10:48:30.818Z,26.712
2018-11-22T10:48:47.598Z,26.73
2018-11-22T10:49:04.295Z,26.683
2018-11-22T10:49:21.082Z,26.509
2018-11-22T10:49:37.777Z,26.527
2018-11-22T10:49:54.538Z,26.552
2018-11-22T10:50:11.294Z,26.582
2018-11-22T10:50:27.954Z,26.509
2018-11-22T10:50:44.705Z,26.552
2018-11-22T10:51:01.468Z,26.477
2018-11-22T10:51:18.188Z,26.404
2018-11-22T10:51:34.780Z,26.419
2018-11-22T10:51:51.569Z,26.46
2018-11-22T10:52:08.249Z,26.474
2018-11-22T10:52:24.965Z,26.552
2018-11-22T10:52:41.876Z,26.506
2018-11-22T10:52:58.484Z,26.45
2018-11-22T10:53:15.184Z,26.495
2018-11-22T10:53:31.870Z,26.418
2018-11-22T10:53:48.602Z,26.492
2018-11-22T10:54:05.335Z,26.418
2018-11-22T10:54:22.110Z,26.523
2018-11-22T10:54:38.897Z,26.552
2018-11-22T10:54:55.639Z,26.491
2018-11-22T10:55:12.387Z,26.474
2018-11-22T10:55:29.153Z,26.552
2018-11-22T10:55:45.857Z,26.509
2018-11-22T10:56:02.781Z,26.492
2018-11-22T10:56:19.535Z,26.492
2018-11-22T10:56:36.228Z,26.479
2018-11-22T10:56:52.929Z,26.509
2018-11-22T10:57:09.720Z,26.405
2018-11-22T10:57:26.461Z,26.39
2018-11-22T10:57:43.229Z,26.382
2018-11-22T10:57:59.905Z,26.46
2018-11-22T10:58:16.708Z,26.341
2018-11-22T10:58:33.238Z,26.39
2018-11-22T10:58:49.915Z,26.45
2018-11-22T10:59:06.621Z,26.45
2018-11-22T10:59:23.333Z,26.505
2018-11-22T10:59:39.983Z,26.45
2018-11-22T10:59:57.549Z,26.376
2018-11-22T11:00:14.233Z,26.463
2018-11-22T11:00:30.943Z,26.45
2018-11-22T11:00:47.654Z,26.331
2018-11-22T11:01:04.378Z,26.382
2018-11-22T11:01:21.083Z,26.491
2018-11-22T11:01:37.766Z,26.463
2018-11-22T11:01:54.478Z,26.39
2018-11-22T11:02:11.594Z,26.39
2018-11-22T11:02:28.166Z,26.341
2018-11-22T11:02:44.848Z,26.431
2018-11-22T11:03:01.509Z,26.46
2018-11-22T11:03:18.171Z,26.477
2018-11-22T11:03:34.895Z,26.428
2018-11-22T11:03:51.666Z,26.505
2018-11-22T11:04:08.396Z,26.413
2018-11-22T11:04:25.202Z,26.401
2018-11-22T11:04:41.849Z,26.431
2018-11-22T11:04:58.552Z,26.459
2018-11-22T11:05:15.220Z,26.399
2018-11-22T11:05:31.905Z,26.488
2018-11-22T11:05:48.665Z,26.447
2018-11-22T11:06:05.388Z,26.447
2018-11-22T11:06:22.090Z,26.491
2018-11-22T11:06:38.793Z,26.488
2018-11-22T11:06:55.592Z,26.414
2018-11-22T11:07:12.359Z,26.52
2018-11-22T11:07:29.102Z,26.445
2018-11-22T11:07:45.759Z,26.372
2018-11-22T11:08:02.435Z,26.369
2018-11-22T11:08:19.096Z,26.427
2018-11-22T11:08:35.777Z,26.459
2018-11-22T11:08:52.558Z,26.413
2018-11-22T11:09:09.230Z,26.428
2018-11-22T11:09:25.886Z,26.442
2018-11-22T11:09:42.707Z,26.445
2018-11-22T11:09:59.339Z,26.488
2018-11-22T11:10:16.044Z,26.396
2018-11-22T11:10:32.679Z,26.386
2018-11-22T11:10:49.342Z,26.369
2018-11-22T11:11:06.072Z,26.414
2018-11-22T11:11:22.727Z,26.488
2018-11-22T11:11:39.471Z,26.381
2018-11-22T11:11:56.071Z,26.367
2018-11-22T11:12:12.730Z,26.469
2018-11-22T11:12:30.631Z,26.442
2018-11-22T11:12:46.916Z,26.515
2018-11-22T11:13:03.170Z,26.413
2018-11-22T11:13:19.554Z,26.482
2018-11-22T11:13:36.181Z,26.424
2018-11-22T11:13:52.859Z,26.469
2018-11-22T11:14:09.567Z,26.44
2018-11-22T11:14:26.283Z,26.469
2018-11-22T11:14:42.975Z,26.483
2018-11-22T11:14:59.624Z,26.437
2018-11-22T11:15:16.316Z,26.408
2018-11-22T11:15:32.935Z,26.395
2018-11-22T11:15:49.600Z,26.482
2018-11-22T11:16:06.328Z,26.541
2018-11-22T11:16:23.032Z,26.497
2018-11-22T11:16:39.698Z,26.437
2018-11-22T11:16:56.402Z,26.465
2018-11-22T11:17:13.094Z,26.482
2018-11-22T11:17:29.795Z,26.451
2018-11-22T11:17:46.506Z,26.451
2018-11-22T11:18:03.221Z,26.509
2018-11-22T11:18:19.865Z,26.465
2018-11-22T11:18:36.586Z,26.514
2018-11-22T11:18:53.231Z,26.45
2018-11-22T11:19:09.944Z,26.584
2018-11-22T11:19:26.724Z,26.541
2018-11-22T11:19:43.461Z,26.537
2018-11-22T11:20:00.199Z,26.552
2018-11-22T11:20:16.901Z,26.569
2018-11-22T11:20:33.576Z,26.509
2018-11-22T11:20:50.321Z,26.582
2018-11-22T11:21:23.080Z,26.582
2018-11-22T11:21:39.380Z,26.566
2018-11-22T11:21:55.637Z,26.55
2018-11-22T11:22:11.977Z,26.564
2018-11-22T11:22:28.250Z,26.55
2018-11-22T11:22:44.669Z,26.579
2018-11-22T11:23:01.187Z,26.55
2018-11-22T11:23:17.456Z,26.55
2018-11-22T11:23:33.726Z,26.607
2018-11-22T11:23:50.030Z,26.55
2018-11-22T11:24:06.398Z,26.651
2018-11-22T11:24:23.178Z,26.547
2018-11-22T11:24:42.801Z,26.566
2018-11-22T11:25:00.026Z,26.582
2018-11-22T11:25:16.310Z,26.532
2018-11-22T11:25:32.604Z,26.605
2018-11-22T11:25:48.869Z,26.579
2018-11-22T11:26:05.130Z,26.547
2018-11-22T11:26:21.595Z,26.62
2018-11-22T11:26:38.047Z,26.591
2018-11-22T11:26:54.386Z,26.561
2018-11-22T11:27:10.752Z,26.602
2018-11-22T11:27:26.998Z,26.602
2018-11-22T11:27:43.279Z,26.633
2018-11-22T11:27:59.544Z,26.633
2018-11-22T11:28:15.786Z,26.717
2018-11-22T11:28:32.107Z,26.717
2018-11-22T11:28:48.377Z,26.614
2018-11-22T11:29:04.624Z,26.674
2018-11-22T11:29:20.854Z,26.646
2018-11-22T11:29:37.101Z,26.633
2018-11-22T11:29:53.332Z,26.703
2018-11-22T11:30:09.602Z,26.703
2018-11-22T11:30:25.872Z,26.63
2018-11-22T11:30:42.133Z,26.57
2018-11-22T11:30:58.384Z,26.646
2018-11-22T11:31:14.840Z,26.643
2018-11-22T11:31:31.548Z,26.73
2018-11-22T11:31:48.190Z,26.643
2018-11-22T11:32:04.963Z,26.643
2018-11-22T11:32:21.662Z,26.671
2018-11-22T11:32:38.289Z,26.646
2018-11-22T11:32:55.035Z,26.643
2018-11-22T11:33:11.666Z,26.643
2018-11-22T11:33:28.361Z,26.656
2018-11-22T11:33:45.182Z,26.698
2018-11-22T11:34:01.872Z,26.744
2018-11-22T11:34:18.511Z,26.715
2018-11-22T11:34:35.226Z,26.739
2018-11-22T11:34:51.920Z,26.683
2018-11-22T11:35:08.544Z,26.739
2018-11-22T11:35:25.227Z,26.698
2018-11-22T11:35:41.926Z,26.729
2018-11-22T11:35:58.596Z,26.729
2018-11-22T11:36:19.277Z,26.726
2018-11-22T11:36:35.927Z,26.758
2018-11-22T11:36:52.613Z,26.811
2018-11-22T11:37:09.292Z,26.738
2018-11-22T11:37:25.973Z,26.758
2018-11-22T11:37:42.686Z,26.739
2018-11-22T11:37:59.373Z,26.738
2018-11-22T11:38:16.082Z,26.756
2018-11-22T11:38:32.819Z,26.756
2018-11-22T11:38:49.508Z,26.767
2018-11-22T11:39:06.216Z,26.739
2018-11-22T11:39:22.913Z,26.712
2018-11-22T11:39:39.602Z,26.77
2018-11-22T11:40:02.078Z,26.753
2018-11-22T11:40:18.780Z,26.753
2018-11-22T11:40:35.406Z,26.785
2018-11-22T11:40:52.069Z,26.813
2018-11-22T11:41:08.774Z,26.826
2018-11-22T11:41:25.487Z,26.784
2018-11-22T11:41:42.182Z,26.852
2018-11-22T11:41:58.751Z,26.857
2018-11-22T11:42:15.460Z,26.753
2018-11-22T11:42:32.160Z,26.781
2018-11-22T11:42:48.847Z,26.738
2018-11-22T11:43:05.534Z,26.765
2018-11-22T11:43:22.220Z,26.767
2018-11-22T11:43:38.857Z,26.825
2018-11-22T11:43:55.568Z,26.781
2018-11-22T11:44:12.193Z,26.811
2018-11-22T11:44:28.878Z,26.781
2018-11-22T11:44:45.553Z,26.738
2018-11-22T11:45:02.181Z,26.765
2018-11-22T11:45:18.884Z,26.808
2018-11-22T11:45:35.528Z,26.794
2018-11-22T11:45:52.187Z,26.765
2018-11-22T11:46:08.849Z,26.781
2018-11-22T11:46:25.513Z,26.863
2018-11-22T11:46:42.285Z,26.839
2018-11-22T11:46:58.950Z,26.79
2018-11-22T11:47:15.570Z,26.839
2018-11-22T11:47:32.251Z,26.854
2018-11-22T11:47:48.915Z,26.779
2018-11-22T11:48:05.596Z,26.852
2018-11-22T11:48:22.305Z,26.807
2018-11-22T11:48:38.951Z,26.836
2018-11-22T11:48:55.614Z,26.866
2018-11-22T11:49:12.297Z,26.839
2018-11-22T11:49:28.968Z,26.839
2018-11-22T11:49:45.644Z,26.88
2018-11-22T11:50:02.349Z,26.836
2018-11-22T11:50:19.834Z,26.79
2018-11-22T11:50:36.507Z,26.852
2018-11-22T11:50:53.003Z,26.82
2018-11-22T11:51:09.745Z,26.834
2018-11-22T11:51:26.614Z,26.877
2018-11-22T11:51:43.213Z,26.907
2018-11-22T11:51:59.962Z,26.907
2018-11-22T11:52:16.572Z,26.923
2018-11-22T11:52:33.282Z,26.923
2018-11-22T11:52:49.995Z,26.834
2018-11-22T11:53:06.673Z,26.862
2018-11-22T11:53:43.030Z,26.907
2018-11-22T11:53:48.696Z,26.88
2018-11-22T11:54:05.461Z,26.849
2018-11-22T11:54:22.238Z,26.834
2018-11-22T11:54:38.889Z,26.817
2018-11-22T11:54:55.662Z,26.889
2018-11-22T11:55:12.339Z,26.875
2018-11-22T11:55:28.984Z,26.889
2018-11-22T11:55:45.670Z,26.859
2018-11-22T11:56:02.331Z,26.859
2018-11-22T11:56:20.126Z,26.889
2018-11-22T11:56:36.440Z,26.859
2018-11-22T11:56:52.711Z,26.848
2018-11-22T11:57:09.061Z,26.875
2018-11-22T11:57:25.726Z,26.875
2018-11-22T11:57:42.375Z,26.976
2018-11-22T11:57:59.090Z,26.907
2018-11-22T11:58:15.707Z,26.816
2018-11-22T11:58:32.393Z,26.834
2018-11-22T11:58:49.080Z,26.875
2018-11-22T11:59:05.799Z,26.904
2018-11-22T11:59:22.441Z,26.904
2018-11-22T11:59:39.165Z,26.834
2018-11-22T11:59:55.828Z,26.804
2018-11-22T12:00:12.668Z,26.848
2018-11-22T12:00:29.368Z,26.891
2018-11-22T12:00:46.093Z,26.891
2018-11-22T12:01:02.865Z,26.935
2018-11-22T12:01:19.493Z,26.875
2018-11-22T12:01:36.209Z,26.875
2018-11-22T12:01:52.928Z,26.889
2018-11-22T12:02:15.985Z,26.904
2018-11-22T12:02:32.571Z,26.935
2018-11-22T12:02:49.331Z,26.891
2018-11-22T12:03:05.999Z,26.859
2018-11-22T12:03:22.642Z,26.891
2018-11-22T12:03:39.336Z,27.097
2018-11-22T12:03:56.002Z,29.839
2018-11-22T12:04:12.716Z,29.466
2018-11-22T12:04:29.307Z,29.343
2018-11-22T12:04:46.059Z,28.088
2018-11-22T12:05:02.739Z,27.687
2018-11-22T12:05:19.396Z,27.686
2018-11-22T12:05:36.016Z,27.522
2018-11-22T12:05:52.729Z,27.527
2018-11-22T12:06:09.426Z,27.658
2018-11-22T12:06:26.070Z,27.541
2018-11-22T12:06:42.753Z,27.541
2018-11-22T12:06:59.403Z,27.586
2018-11-22T12:07:16.164Z,28.423
2018-11-22T12:07:32.864Z,27.914
2018-11-22T12:07:49.526Z,27.708
2018-11-22T12:08:06.158Z,27.74
2018-11-22T12:08:22.910Z,27.795
2018-11-22T12:08:39.567Z,27.8
2018-11-22T12:08:56.308Z,28.264
2018-11-22T12:09:12.951Z,28.172
2018-11-22T12:09:29.629Z,27.966
2018-11-22T12:09:46.354Z,27.892
2018-11-22T12:10:03.114Z,28.026
2018-11-22T12:10:19.801Z,28.053
2018-11-22T12:10:36.407Z,28.043
2018-11-22T12:10:53.128Z,30.19
2018-11-22T12:11:09.784Z,31.514
2018-11-22T12:11:26.451Z,31.706
2018-11-22T12:11:43.213Z,31.586
2018-11-22T12:11:59.914Z,31.677
2018-11-22T12:12:16.660Z,30.649
2018-11-22T12:12:33.301Z,29.811
2018-11-22T12:12:49.970Z,29.317
2018-11-22T12:13:06.619Z,30.777
2018-11-22T12:13:23.358Z,30.423
2018-11-22T12:13:39.991Z,30.228
2018-11-22T12:13:56.645Z,29.257
2018-11-22T12:14:13.321Z,29.228
2018-11-22T12:14:30.013Z,28.914
2018-11-22T12:14:46.768Z,28.854
2018-11-22T12:15:03.495Z,28.662
2018-11-22T12:15:20.155Z,28.511
2018-11-22T12:15:36.847Z,29.317
2018-11-22T12:15:53.535Z,29.065
2018-11-22T12:16:10.527Z,28.546
2018-11-22T12:16:27.353Z,28.575
2018-11-22T12:16:44.022Z,28.589
2018-11-22T12:17:00.722Z,28.589
2018-11-22T12:17:17.398Z,28.491
2018-11-22T12:17:34.105Z,28.461
2018-11-22T12:17:50.817Z,28.461
2018-11-22T12:18:08.398Z,28.4
2018-11-22T12:18:25.010Z,28.326
2018-11-22T12:18:41.741Z,28.433
2018-11-22T12:18:58.516Z,28.45
2018-11-22T12:19:15.188Z,28.377
2018-11-22T12:19:31.890Z,28.525
2018-11-22T12:19:48.572Z,28.3
2018-11-22T12:20:05.307Z,28.319
2018-11-22T12:20:22.037Z,28.276
2018-11-22T12:20:38.687Z,28.319
2018-11-22T12:20:55.447Z,28.543
2018-11-22T12:21:12.056Z,28.441
2018-11-22T12:21:28.782Z,28.5
2018-11-22T12:21:45.585Z,28.542
2018-11-22T12:22:02.214Z,29.782
2018-11-22T12:22:18.922Z,28.949
2018-11-22T12:22:35.592Z,28.786
2018-11-22T12:22:52.340Z,29.546
2018-11-22T12:23:09.083Z,28.816
2018-11-22T12:23:25.707Z,28.802
2018-11-22T12:23:42.439Z,28.651
2018-11-22T12:23:59.102Z,28.603
2018-11-22T12:24:15.862Z,28.694
2018-11-22T12:24:32.560Z,28.653
2018-11-22T12:24:49.194Z,29.173
2018-11-22T12:25:05.886Z,29.234
2018-11-22T12:25:22.616Z,30.013
2018-11-22T12:25:39.307Z,28.986
2018-11-22T12:25:56.013Z,30.688
2018-11-22T12:26:12.705Z,29.178
2018-11-22T12:26:29.325Z,28.94
2018-11-22T12:26:46.063Z,28.909
2018-11-22T12:27:02.905Z,29.027
2018-11-22T12:27:19.490Z,29.056
2018-11-22T12:27:36.200Z,29.239
2018-11-22T12:27:52.905Z,29.074
2018-11-22T12:28:09.608Z,29.269
2018-11-22T12:28:26.363Z,28.909
2018-11-22T12:28:43.058Z,29.143
2018-11-22T12:28:59.724Z,29.187
2018-11-22T12:29:16.616Z,29.814
2018-11-22T12:29:33.151Z,29.471
2018-11-22T12:29:49.808Z,30.666
2018-11-22T12:30:06.510Z,29.242
2018-11-22T12:30:23.266Z,29.317
2018-11-22T12:30:39.940Z,29.274
2018-11-22T12:30:56.681Z,29.974